sensor_id;sensor_type;location;lat;lon;timestamp;temperature;humidity
64255;DHT22;50593;44.748;19.692;2022-08-30T00:00:13;29.00;54.80
64255;DHT22;50593;44.748;19.692;2022-08-30T00:00:52;29.00;54.70
64255;DHT22;50593;44.748;19.692;2022-08-30T00:01:24;29.00;54.60
64255;DHT22;50593;44.748;19.692;2022-08-30T00:01:46;29.00;53.80
64255;DHT22;50593;44.748;19.692;2022-08-30T00:02:06;28.90;53.70
64255;DHT22;50593;44.748;19.692;2022-08-30T00:02:27;29.00;53.80
64255;DHT22;50593;44.748;19.692;2022-08-30T00:02:47;29.00;54.70
64255;DHT22;50593;44.748;19.692;2022-08-30T00:03:10;29.00;54.70
64255;DHT22;50593;44.748;19.692;2022-08-30T00:03:32;28.90;53.70
64255;DHT22;50593;44.748;19.692;2022-08-30T00:03:53;29.00;53.70
64255;DHT22;50593;44.748;19.692;2022-08-30T00:04:14;29.00;53.80
64255;DHT22;50593;44.748;19.692;2022-08-30T00:04:34;29.00;54.80
64255;DHT22;50593;44.748;19.692;2022-08-30T00:04:55;28.90;53.90
64255;DHT22;50593;44.748;19.692;2022-08-30T00:05:16;29.00;54.80
64255;DHT22;50593;44.748;19.692;2022-08-30T00:05:37;29.00;54.80
64255;DHT22;50593;44.748;19.692;2022-08-30T00:05:59;29.00;55.00
64255;DHT22;50593;44.748;19.692;2022-08-30T00:06:20;29.00;54.30
64255;DHT22;50593;44.748;19.692;2022-08-30T00:06:41;29.00;55.00
64255;DHT22;50593;44.748;19.692;2022-08-30T00:07:02;29.00;54.00
64255;DHT22;50593;44.748;19.692;2022-08-30T00:07:23;28.90;53.90
64255;DHT22;50593;44.748;19.692;2022-08-30T00:07:44;29.00;55.20
64255;DHT22;50593;44.748;19.692;2022-08-30T00:08:04;29.00;55.10
64255;DHT22;50593;44.748;19.692;2022-08-30T00:08:25;29.00;54.40
64255;DHT22;50593;44.748;19.692;2022-08-30T00:08:46;29.00;54.10
64255;DHT22;50593;44.748;19.692;2022-08-30T00:09:08;29.00;55.10
64255;DHT22;50593;44.748;19.692;2022-08-30T00:09:29;29.00;53.90
64255;DHT22;50593;44.748;19.692;2022-08-30T00:09:50;29.00;54.10
64255;DHT22;50593;44.748;19.692;2022-08-30T00:10:11;29.00;54.00
64255;DHT22;50593;44.748;19.692;2022-08-30T00:10:33;29.00;53.90
64255;DHT22;50593;44.748;19.692;2022-08-30T00:10:54;29.00;54.00
64255;DHT22;50593;44.748;19.692;2022-08-30T00:11:15;29.00;55.00
64255;DHT22;50593;44.748;19.692;2022-08-30T00:11:36;29.00;54.00
64255;DHT22;50593;44.748;19.692;2022-08-30T00:11:57;29.00;54.00
64255;DHT22;50593;44.748;19.692;2022-08-30T00:12:18;29.00;54.90
64255;DHT22;50593;44.748;19.692;2022-08-30T00:12:40;29.00;53.90
64255;DHT22;50593;44.748;19.692;2022-08-30T00:13:02;29.00;53.90
64255;DHT22;50593;44.748;19.692;2022-08-30T00:13:23;29.10;55.00
64255;DHT22;50593;44.748;19.692;2022-08-30T00:13:44;29.10;54.90
64255;DHT22;50593;44.748;19.692;2022-08-30T00:14:05;29.10;54.90
64255;DHT22;50593;44.748;19.692;2022-08-30T00:14:26;29.00;53.90
64255;DHT22;50593;44.748;19.692;2022-08-30T00:14:46;29.00;53.90
64255;DHT22;50593;44.748;19.692;2022-08-30T00:15:07;29.00;53.70
64255;DHT22;50593;44.748;19.692;2022-08-30T00:15:28;29.10;54.80
64255;DHT22;50593;44.748;19.692;2022-08-30T00:15:49;29.10;54.80
64255;DHT22;50593;44.748;19.692;2022-08-30T00:16:10;29.00;53.80
64255;DHT22;50593;44.748;19.692;2022-08-30T00:16:31;29.10;54.80
64255;DHT22;50593;44.748;19.692;2022-08-30T00:16:52;29.10;53.60
64255;DHT22;50593;44.748;19.692;2022-08-30T00:17:12;29.10;53.60
64255;DHT22;50593;44.748;19.692;2022-08-30T00:17:33;29.10;54.80
64255;DHT22;50593;44.748;19.692;2022-08-30T00:17:54;29.10;53.70
64255;DHT22;50593;44.748;19.692;2022-08-30T00:18:16;29.10;53.80
64255;DHT22;50593;44.748;19.692;2022-08-30T00:18:37;29.10;53.80
64255;DHT22;50593;44.748;19.692;2022-08-30T00:18:58;29.10;53.80
64255;DHT22;50593;44.748;19.692;2022-08-30T00:19:20;29.10;53.60
64255;DHT22;50593;44.748;19.692;2022-08-30T00:19:41;29.10;53.60
64255;DHT22;50593;44.748;19.692;2022-08-30T00:20:03;29.00;53.60
64255;DHT22;50593;44.748;19.692;2022-08-30T00:20:25;29.10;54.60
64255;DHT22;50593;44.748;19.692;2022-08-30T00:20:46;29.10;54.50
64255;DHT22;50593;44.748;19.692;2022-08-30T00:21:08;29.00;53.60
64255;DHT22;50593;44.748;19.692;2022-08-30T00:21:28;29.10;53.60
64255;DHT22;50593;44.748;19.692;2022-08-30T00:21:49;29.10;55.80
64255;DHT22;50593;44.748;19.692;2022-08-30T00:22:10;29.10;53.70
64255;DHT22;50593;44.748;19.692;2022-08-30T00:22:30;29.10;53.50
64255;DHT22;50593;44.748;19.692;2022-08-30T00:22:52;29.10;53.60
64255;DHT22;50593;44.748;19.692;2022-08-30T00:23:13;29.10;53.60
64255;DHT22;50593;44.748;19.692;2022-08-30T00:23:33;29.10;53.60
64255;DHT22;50593;44.748;19.692;2022-08-30T00:23:54;29.10;53.60
64255;DHT22;50593;44.748;19.692;2022-08-30T00:24:14;29.10;54.60
64255;DHT22;50593;44.748;19.692;2022-08-30T00:24:35;29.10;54.50
64255;DHT22;50593;44.748;19.692;2022-08-30T00:24:56;29.10;54.70
64255;DHT22;50593;44.748;19.692;2022-08-30T00:25:16;29.10;53.60
64255;DHT22;50593;44.748;19.692;2022-08-30T00:25:38;29.10;54.50
64255;DHT22;50593;44.748;19.692;2022-08-30T00:26:21;29.20;53.60
64255;DHT22;50593;44.748;19.692;2022-08-30T00:26:41;29.10;53.60
64255;DHT22;50593;44.748;19.692;2022-08-30T00:27:02;29.10;53.50
64255;DHT22;50593;44.748;19.692;2022-08-30T00:27:22;29.10;53.70
64255;DHT22;50593;44.748;19.692;2022-08-30T00:27:43;29.10;53.40
64255;DHT22;50593;44.748;19.692;2022-08-30T00:28:04;29.10;53.50
64255;DHT22;50593;44.748;19.692;2022-08-30T00:28:25;29.10;53.50
64255;DHT22;50593;44.748;19.692;2022-08-30T00:28:45;29.10;53.60
64255;DHT22;50593;44.748;19.692;2022-08-30T00:29:06;29.10;53.50
64255;DHT22;50593;44.748;19.692;2022-08-30T00:29:26;29.10;53.50
64255;DHT22;50593;44.748;19.692;2022-08-30T00:29:47;29.10;53.50
64255;DHT22;50593;44.748;19.692;2022-08-30T00:30:08;29.10;53.40
64255;DHT22;50593;44.748;19.692;2022-08-30T00:30:29;29.10;53.40
64255;DHT22;50593;44.748;19.692;2022-08-30T00:30:49;29.10;53.50
64255;DHT22;50593;44.748;19.692;2022-08-30T00:31:10;29.10;53.50
64255;DHT22;50593;44.748;19.692;2022-08-30T00:31:31;29.10;53.30
64255;DHT22;50593;44.748;19.692;2022-08-30T00:31:52;29.10;53.30
64255;DHT22;50593;44.748;19.692;2022-08-30T00:32:12;29.10;53.40
64255;DHT22;50593;44.748;19.692;2022-08-30T00:32:33;29.10;53.40
64255;DHT22;50593;44.748;19.692;2022-08-30T00:32:54;29.20;54.50
64255;DHT22;50593;44.748;19.692;2022-08-30T00:33:14;29.10;54.40
64255;DHT22;50593;44.748;19.692;2022-08-30T00:33:35;29.10;53.50
64255;DHT22;50593;44.748;19.692;2022-08-30T00:33:56;29.10;54.50
64255;DHT22;50593;44.748;19.692;2022-08-30T00:34:16;29.10;53.40
64255;DHT22;50593;44.748;19.692;2022-08-30T00:34:37;29.10;54.40
64255;DHT22;50593;44.748;19.692;2022-08-30T00:34:57;29.20;54.40
64255;DHT22;50593;44.748;19.692;2022-08-30T00:35:18;29.20;54.50
64255;DHT22;50593;44.748;19.692;2022-08-30T00:35:40;29.10;53.40
64255;DHT22;50593;44.748;19.692;2022-08-30T00:36:00;29.10;53.40
64255;DHT22;50593;44.748;19.692;2022-08-30T00:36:21;29.20;54.40
64255;DHT22;50593;44.748;19.692;2022-08-30T00:36:44;29.20;54.50
64255;DHT22;50593;44.748;19.692;2022-08-30T00:37:05;29.20;54.40
64255;DHT22;50593;44.748;19.692;2022-08-30T00:37:25;29.10;54.30
64255;DHT22;50593;44.748;19.692;2022-08-30T00:37:47;29.20;54.40
64255;DHT22;50593;44.748;19.692;2022-08-30T00:38:08;29.20;54.50
64255;DHT22;50593;44.748;19.692;2022-08-30T00:38:28;29.10;54.50
64255;DHT22;50593;44.748;19.692;2022-08-30T00:38:49;29.20;54.60
64255;DHT22;50593;44.748;19.692;2022-08-30T00:39:09;29.10;54.40
64255;DHT22;50593;44.748;19.692;2022-08-30T00:39:30;29.10;53.50
64255;DHT22;50593;44.748;19.692;2022-08-30T00:39:51;29.20;53.50
64255;DHT22;50593;44.748;19.692;2022-08-30T00:40:12;29.20;54.50
64255;DHT22;50593;44.748;19.692;2022-08-30T00:40:35;29.20;53.60
64255;DHT22;50593;44.748;19.692;2022-08-30T00:40:57;29.20;53.50
64255;DHT22;50593;44.748;19.692;2022-08-30T00:41:18;29.20;53.50
64255;DHT22;50593;44.748;19.692;2022-08-30T00:41:39;29.10;53.50
64255;DHT22;50593;44.748;19.692;2022-08-30T00:42:00;29.10;53.40
64255;DHT22;50593;44.748;19.692;2022-08-30T00:42:20;29.10;54.40
64255;DHT22;50593;44.748;19.692;2022-08-30T00:42:42;29.10;53.40
64255;DHT22;50593;44.748;19.692;2022-08-30T00:43:04;29.20;54.50
64255;DHT22;50593;44.748;19.692;2022-08-30T00:43:27;29.20;54.40
64255;DHT22;50593;44.748;19.692;2022-08-30T00:43:47;29.20;53.50
64255;DHT22;50593;44.748;19.692;2022-08-30T00:44:08;29.20;54.40
64255;DHT22;50593;44.748;19.692;2022-08-30T00:44:29;29.20;54.40
64255;DHT22;50593;44.748;19.692;2022-08-30T00:44:50;29.10;53.50
64255;DHT22;50593;44.748;19.692;2022-08-30T00:45:18;29.20;53.50
64255;DHT22;50593;44.748;19.692;2022-08-30T00:45:39;29.20;54.50
64255;DHT22;50593;44.748;19.692;2022-08-30T00:46:00;29.20;54.50
64255;DHT22;50593;44.748;19.692;2022-08-30T00:46:23;29.20;54.50
64255;DHT22;50593;44.748;19.692;2022-08-30T00:46:44;29.20;54.50
64255;DHT22;50593;44.748;19.692;2022-08-30T00:47:04;29.20;53.60
64255;DHT22;50593;44.748;19.692;2022-08-30T00:47:25;29.20;54.50
64255;DHT22;50593;44.748;19.692;2022-08-30T00:47:46;29.10;53.40
64255;DHT22;50593;44.748;19.692;2022-08-30T00:48:07;29.20;54.60
64255;DHT22;50593;44.748;19.692;2022-08-30T00:48:27;29.10;53.50
64255;DHT22;50593;44.748;19.692;2022-08-30T00:48:49;29.20;54.60
64255;DHT22;50593;44.748;19.692;2022-08-30T00:49:11;29.20;54.50
64255;DHT22;50593;44.748;19.692;2022-08-30T00:49:33;29.20;54.60
64255;DHT22;50593;44.748;19.692;2022-08-30T00:49:54;29.20;54.60
64255;DHT22;50593;44.748;19.692;2022-08-30T00:50:16;29.20;53.80
64255;DHT22;50593;44.748;19.692;2022-08-30T00:50:39;29.20;54.70
64255;DHT22;50593;44.748;19.692;2022-08-30T00:51:03;29.20;53.60
64255;DHT22;50593;44.748;19.692;2022-08-30T00:51:24;29.20;55.70
64255;DHT22;50593;44.748;19.692;2022-08-30T00:51:45;29.20;54.60
64255;DHT22;50593;44.748;19.692;2022-08-30T00:52:06;29.20;53.70
64255;DHT22;50593;44.748;19.692;2022-08-30T00:52:27;29.20;53.70
64255;DHT22;50593;44.748;19.692;2022-08-30T00:52:48;29.20;53.70
64255;DHT22;50593;44.748;19.692;2022-08-30T00:53:11;29.20;53.70
64255;DHT22;50593;44.748;19.692;2022-08-30T00:53:33;29.20;54.60
64255;DHT22;50593;44.748;19.692;2022-08-30T00:53:55;29.20;54.70
64255;DHT22;50593;44.748;19.692;2022-08-30T00:54:17;29.20;54.70
64255;DHT22;50593;44.748;19.692;2022-08-30T00:54:38;29.20;54.70
64255;DHT22;50593;44.748;19.692;2022-08-30T00:55:01;29.20;54.80
64255;DHT22;50593;44.748;19.692;2022-08-30T00:55:22;29.20;53.80
64255;DHT22;50593;44.748;19.692;2022-08-30T00:55:43;29.20;53.80
64255;DHT22;50593;44.748;19.692;2022-08-30T00:56:04;29.20;53.80
64255;DHT22;50593;44.748;19.692;2022-08-30T00:56:25;29.20;54.80
64255;DHT22;50593;44.748;19.692;2022-08-30T00:56:46;29.20;54.90
64255;DHT22;50593;44.748;19.692;2022-08-30T00:57:08;29.20;54.70
64255;DHT22;50593;44.748;19.692;2022-08-30T00:57:29;29.20;54.80
64255;DHT22;50593;44.748;19.692;2022-08-30T00:57:50;29.20;53.90
64255;DHT22;50593;44.748;19.692;2022-08-30T00:58:13;29.20;53.80
64255;DHT22;50593;44.748;19.692;2022-08-30T00:58:37;29.20;54.80
64255;DHT22;50593;44.748;19.692;2022-08-30T00:58:59;29.20;53.80
64255;DHT22;50593;44.748;19.692;2022-08-30T00:59:21;29.20;53.80
64255;DHT22;50593;44.748;19.692;2022-08-30T00:59:43;29.20;53.80
64255;DHT22;50593;44.748;19.692;2022-08-30T01:00:06;33.10;56.70
64255;DHT22;50593;44.748;19.692;2022-08-30T01:00:27;29.20;53.80
64255;DHT22;50593;44.748;19.692;2022-08-30T01:00:48;29.10;53.70
64255;DHT22;50593;44.748;19.692;2022-08-30T01:01:09;29.10;53.70
64255;DHT22;50593;44.748;19.692;2022-08-30T01:01:30;29.10;53.70
64255;DHT22;50593;44.748;19.692;2022-08-30T01:01:51;29.10;53.80
64255;DHT22;50593;44.748;19.692;2022-08-30T01:02:12;29.10;53.80
64255;DHT22;50593;44.748;19.692;2022-08-30T01:02:33;29.10;53.80
64255;DHT22;50593;44.748;19.692;2022-08-30T01:02:54;29.20;54.80
64255;DHT22;50593;44.748;19.692;2022-08-30T01:03:14;29.10;54.60
64255;DHT22;50593;44.748;19.692;2022-08-30T01:03:37;29.10;54.80
64255;DHT22;50593;44.748;19.692;2022-08-30T01:03:58;29.10;54.80
64255;DHT22;50593;44.748;19.692;2022-08-30T01:04:20;29.10;54.80
64255;DHT22;50593;44.748;19.692;2022-08-30T01:04:43;29.10;53.90
64255;DHT22;50593;44.748;19.692;2022-08-30T01:05:05;29.10;54.90
64255;DHT22;50593;44.748;19.692;2022-08-30T01:05:27;29.10;53.90
64255;DHT22;50593;44.748;19.692;2022-08-30T01:05:49;29.10;53.90
64255;DHT22;50593;44.748;19.692;2022-08-30T01:06:11;29.10;55.00
64255;DHT22;50593;44.748;19.692;2022-08-30T01:06:34;29.10;54.00
64255;DHT22;50593;44.748;19.692;2022-08-30T01:06:55;29.10;55.00
64255;DHT22;50593;44.748;19.692;2022-08-30T01:07:16;29.10;55.10
64255;DHT22;50593;44.748;19.692;2022-08-30T01:07:38;29.00;54.00
64255;DHT22;50593;44.748;19.692;2022-08-30T01:07:58;29.10;55.00
64255;DHT22;50593;44.748;19.692;2022-08-30T01:08:19;29.10;54.10
64255;DHT22;50593;44.748;19.692;2022-08-30T01:08:42;29.10;55.00
64255;DHT22;50593;44.748;19.692;2022-08-30T01:09:03;29.10;55.00
64255;DHT22;50593;44.748;19.692;2022-08-30T01:09:24;29.10;55.00
64255;DHT22;50593;44.748;19.692;2022-08-30T01:09:44;29.10;55.10
64255;DHT22;50593;44.748;19.692;2022-08-30T01:10:05;29.10;55.10
64255;DHT22;50593;44.748;19.692;2022-08-30T01:10:26;29.00;54.10
64255;DHT22;50593;44.748;19.692;2022-08-30T01:10:47;29.10;55.10
64255;DHT22;50593;44.748;19.692;2022-08-30T01:11:08;29.00;55.30
64255;DHT22;50593;44.748;19.692;2022-08-30T01:11:29;29.10;54.80
64255;DHT22;50593;44.748;19.692;2022-08-30T01:11:51;29.00;54.50
64255;DHT22;50593;44.748;19.692;2022-08-30T01:12:12;29.00;54.40
64255;DHT22;50593;44.748;19.692;2022-08-30T01:12:32;29.00;54.40
64255;DHT22;50593;44.748;19.692;2022-08-30T01:12:53;29.00;55.30
64255;DHT22;50593;44.748;19.692;2022-08-30T01:13:13;29.00;54.40
64255;DHT22;50593;44.748;19.692;2022-08-30T01:13:34;29.00;54.50
64255;DHT22;50593;44.748;19.692;2022-08-30T01:13:55;29.00;55.50
64255;DHT22;50593;44.748;19.692;2022-08-30T01:14:17;29.00;54.40
64255;DHT22;50593;44.748;19.692;2022-08-30T01:14:41;29.10;55.50
64255;DHT22;50593;44.748;19.692;2022-08-30T01:15:02;29.00;54.50
64255;DHT22;50593;44.748;19.692;2022-08-30T01:15:23;29.00;55.50
64255;DHT22;50593;44.748;19.692;2022-08-30T01:15:43;29.00;55.50
64255;DHT22;50593;44.748;19.692;2022-08-30T01:16:05;29.00;54.80
64255;DHT22;50593;44.748;19.692;2022-08-30T01:16:26;29.00;55.60
64255;DHT22;50593;44.748;19.692;2022-08-30T01:16:46;29.00;54.60
64255;DHT22;50593;44.748;19.692;2022-08-30T01:17:08;29.00;55.60
64255;DHT22;50593;44.748;19.692;2022-08-30T01:17:28;29.00;54.60
64255;DHT22;50593;44.748;19.692;2022-08-30T01:17:49;29.00;55.60
64255;DHT22;50593;44.748;19.692;2022-08-30T01:18:09;29.00;54.60
64255;DHT22;50593;44.748;19.692;2022-08-30T01:18:30;29.00;54.70
64255;DHT22;50593;44.748;19.692;2022-08-30T01:18:52;29.00;55.70
64255;DHT22;50593;44.748;19.692;2022-08-30T01:20:02;29.00;55.80
64255;DHT22;50593;44.748;19.692;2022-08-30T01:20:25;29.00;55.90
64255;DHT22;50593;44.748;19.692;2022-08-30T01:20:58;29.00;55.00
64255;DHT22;50593;44.748;19.692;2022-08-30T01:21:30;29.00;55.00
64255;DHT22;50593;44.748;19.692;2022-08-30T01:21:55;29.00;55.00
64255;DHT22;50593;44.748;19.692;2022-08-30T01:23:13;29.00;56.20
64255;DHT22;50593;44.748;19.692;2022-08-30T01:23:35;29.00;55.00
64255;DHT22;50593;44.748;19.692;2022-08-30T01:23:57;29.00;55.00
64255;DHT22;50593;44.748;19.692;2022-08-30T01:24:18;28.90;54.90
64255;DHT22;50593;44.748;19.692;2022-08-30T01:24:39;29.00;55.00
64255;DHT22;50593;44.748;19.692;2022-08-30T01:25:00;28.90;54.90
64255;DHT22;50593;44.748;19.692;2022-08-30T01:25:23;28.90;54.90
64255;DHT22;50593;44.748;19.692;2022-08-30T01:25:45;29.00;55.10
64255;DHT22;50593;44.748;19.692;2022-08-30T01:26:06;29.00;55.00
64255;DHT22;50593;44.748;19.692;2022-08-30T01:26:28;28.90;54.90
64255;DHT22;50593;44.748;19.692;2022-08-30T01:26:49;28.90;55.00
64255;DHT22;50593;44.748;19.692;2022-08-30T01:27:09;29.00;56.00
64255;DHT22;50593;44.748;19.692;2022-08-30T01:27:30;29.00;55.00
64255;DHT22;50593;44.748;19.692;2022-08-30T01:27:54;29.00;56.00
64255;DHT22;50593;44.748;19.692;2022-08-30T01:28:20;29.00;55.90
64255;DHT22;50593;44.748;19.692;2022-08-30T01:28:43;29.00;55.90
64255;DHT22;50593;44.748;19.692;2022-08-30T01:29:06;29.00;55.00
64255;DHT22;50593;44.748;19.692;2022-08-30T01:29:28;29.00;56.00
64255;DHT22;50593;44.748;19.692;2022-08-30T01:29:49;28.90;55.00
64255;DHT22;50593;44.748;19.692;2022-08-30T01:30:11;29.00;56.00
64255;DHT22;50593;44.748;19.692;2022-08-30T01:30:32;28.90;54.90
64255;DHT22;50593;44.748;19.692;2022-08-30T01:30:53;28.90;55.90
64255;DHT22;50593;44.748;19.692;2022-08-30T01:31:13;28.90;54.90
64255;DHT22;50593;44.748;19.692;2022-08-30T01:31:34;28.90;55.00
64255;DHT22;50593;44.748;19.692;2022-08-30T01:31:56;28.90;54.90
64255;DHT22;50593;44.748;19.692;2022-08-30T01:32:17;28.90;54.90
64255;DHT22;50593;44.748;19.692;2022-08-30T01:32:39;28.90;55.00
64255;DHT22;50593;44.748;19.692;2022-08-30T01:33:01;28.90;55.90
64255;DHT22;50593;44.748;19.692;2022-08-30T01:33:22;28.90;55.90
64255;DHT22;50593;44.748;19.692;2022-08-30T01:33:43;28.90;55.00
64255;DHT22;50593;44.748;19.692;2022-08-30T01:34:05;28.90;55.00
64255;DHT22;50593;44.748;19.692;2022-08-30T01:34:26;28.90;55.00
64255;DHT22;50593;44.748;19.692;2022-08-30T01:34:47;28.90;56.10
64255;DHT22;50593;44.748;19.692;2022-08-30T01:35:09;28.90;56.00
64255;DHT22;50593;44.748;19.692;2022-08-30T01:35:53;28.90;55.00
64255;DHT22;50593;44.748;19.692;2022-08-30T01:36:13;28.90;56.00
64255;DHT22;50593;44.748;19.692;2022-08-30T01:36:35;28.90;55.30
64255;DHT22;50593;44.748;19.692;2022-08-30T01:36:56;28.90;55.10
64255;DHT22;50593;44.748;19.692;2022-08-30T01:37:19;28.90;55.10
64255;DHT22;50593;44.748;19.692;2022-08-30T01:37:41;28.90;56.00
64255;DHT22;50593;44.748;19.692;2022-08-30T01:38:02;28.90;56.10
64255;DHT22;50593;44.748;19.692;2022-08-30T01:38:27;28.90;56.10
64255;DHT22;50593;44.748;19.692;2022-08-30T01:38:49;28.90;55.20
64255;DHT22;50593;44.748;19.692;2022-08-30T01:39:11;28.90;56.10
64255;DHT22;50593;44.748;19.692;2022-08-30T01:39:32;28.90;55.10
64255;DHT22;50593;44.748;19.692;2022-08-30T01:39:54;28.90;56.10
64255;DHT22;50593;44.748;19.692;2022-08-30T01:40:15;28.90;56.00
64255;DHT22;50593;44.748;19.692;2022-08-30T01:40:35;28.90;55.10
64255;DHT22;50593;44.748;19.692;2022-08-30T01:40:57;28.90;55.20
64255;DHT22;50593;44.748;19.692;2022-08-30T01:41:19;28.90;56.10
64255;DHT22;50593;44.748;19.692;2022-08-30T01:41:41;28.90;55.20
64255;DHT22;50593;44.748;19.692;2022-08-30T01:42:02;28.80;55.10
64255;DHT22;50593;44.748;19.692;2022-08-30T01:42:23;28.80;55.10
64255;DHT22;50593;44.748;19.692;2022-08-30T01:42:44;28.80;55.10
64255;DHT22;50593;44.748;19.692;2022-08-30T01:43:05;28.90;55.40
64255;DHT22;50593;44.748;19.692;2022-08-30T01:43:26;28.80;55.10
64255;DHT22;50593;44.748;19.692;2022-08-30T01:43:47;28.80;55.20
64255;DHT22;50593;44.748;19.692;2022-08-30T01:44:11;28.90;55.20
64255;DHT22;50593;44.748;19.692;2022-08-30T01:44:32;28.90;56.30
64255;DHT22;50593;44.748;19.692;2022-08-30T01:44:52;28.90;56.30
64255;DHT22;50593;44.748;19.692;2022-08-30T01:45:13;28.90;56.30
64255;DHT22;50593;44.748;19.692;2022-08-30T01:45:34;28.90;56.30
64255;DHT22;50593;44.748;19.692;2022-08-30T01:45:54;28.90;56.20
64255;DHT22;50593;44.748;19.692;2022-08-30T01:46:15;28.80;55.30
64255;DHT22;50593;44.748;19.692;2022-08-30T01:46:38;28.80;55.40
64255;DHT22;50593;44.748;19.692;2022-08-30T01:46:59;28.90;56.30
64255;DHT22;50593;44.748;19.692;2022-08-30T01:47:19;28.90;56.30
64255;DHT22;50593;44.748;19.692;2022-08-30T01:47:40;28.90;55.20
64255;DHT22;50593;44.748;19.692;2022-08-30T01:48:01;28.80;56.10
64255;DHT22;50593;44.748;19.692;2022-08-30T01:48:22;28.90;55.10
64255;DHT22;50593;44.748;19.692;2022-08-30T01:48:43;28.90;56.10
64255;DHT22;50593;44.748;19.692;2022-08-30T01:49:05;28.80;55.10
64255;DHT22;50593;44.748;19.692;2022-08-30T01:49:26;28.90;56.10
64255;DHT22;50593;44.748;19.692;2022-08-30T01:49:47;28.80;55.10
64255;DHT22;50593;44.748;19.692;2022-08-30T01:50:07;28.90;56.10
64255;DHT22;50593;44.748;19.692;2022-08-30T01:50:29;28.90;56.10
64255;DHT22;50593;44.748;19.692;2022-08-30T01:50:49;28.90;55.30
64255;DHT22;50593;44.748;19.692;2022-08-30T01:51:10;28.80;56.20
64255;DHT22;50593;44.748;19.692;2022-08-30T01:51:31;28.90;56.30
64255;DHT22;50593;44.748;19.692;2022-08-30T01:51:52;28.90;55.30
64255;DHT22;50593;44.748;19.692;2022-08-30T01:52:13;28.90;55.30
64255;DHT22;50593;44.748;19.692;2022-08-30T01:52:33;28.90;55.20
64255;DHT22;50593;44.748;19.692;2022-08-30T01:52:54;28.90;55.20
64255;DHT22;50593;44.748;19.692;2022-08-30T01:53:14;28.90;55.40
64255;DHT22;50593;44.748;19.692;2022-08-30T01:53:35;28.90;55.30
64255;DHT22;50593;44.748;19.692;2022-08-30T01:53:56;28.90;56.20
64255;DHT22;50593;44.748;19.692;2022-08-30T01:54:16;28.90;56.30
64255;DHT22;50593;44.748;19.692;2022-08-30T01:54:37;29.00;56.30
64255;DHT22;50593;44.748;19.692;2022-08-30T01:54:58;28.90;56.30
64255;DHT22;50593;44.748;19.692;2022-08-30T01:55:20;28.90;56.10
64255;DHT22;50593;44.748;19.692;2022-08-30T01:55:41;28.90;56.10
64255;DHT22;50593;44.748;19.692;2022-08-30T01:56:01;28.90;56.10
64255;DHT22;50593;44.748;19.692;2022-08-30T01:56:22;29.00;56.40
64255;DHT22;50593;44.748;19.692;2022-08-30T01:56:43;28.90;55.20
64255;DHT22;50593;44.748;19.692;2022-08-30T01:57:05;29.00;56.20
64255;DHT22;50593;44.748;19.692;2022-08-30T01:57:25;28.90;56.10
64255;DHT22;50593;44.748;19.692;2022-08-30T01:57:47;28.90;55.20
64255;DHT22;50593;44.748;19.692;2022-08-30T01:58:09;28.90;55.20
64255;DHT22;50593;44.748;19.692;2022-08-30T01:58:30;28.90;55.20
64255;DHT22;50593;44.748;19.692;2022-08-30T01:58:51;28.90;55.20
64255;DHT22;50593;44.748;19.692;2022-08-30T01:59:11;29.00;56.30
64255;DHT22;50593;44.748;19.692;2022-08-30T01:59:32;29.00;55.30
64255;DHT22;50593;44.748;19.692;2022-08-30T01:59:53;29.00;56.20
64255;DHT22;50593;44.748;19.692;2022-08-30T02:00:14;29.00;56.10
64255;DHT22;50593;44.748;19.692;2022-08-30T02:00:34;28.90;56.10
64255;DHT22;50593;44.748;19.692;2022-08-30T02:00:55;29.00;55.30
64255;DHT22;50593;44.748;19.692;2022-08-30T02:01:17;29.00;55.20
64255;DHT22;50593;44.748;19.692;2022-08-30T02:01:39;29.00;56.20
64255;DHT22;50593;44.748;19.692;2022-08-30T02:02:00;29.00;56.10
64255;DHT22;50593;44.748;19.692;2022-08-30T02:02:21;29.00;56.20
64255;DHT22;50593;44.748;19.692;2022-08-30T02:02:43;29.00;55.20
64255;DHT22;50593;44.748;19.692;2022-08-30T02:03:04;29.00;56.10
64255;DHT22;50593;44.748;19.692;2022-08-30T02:03:24;29.00;56.20
64255;DHT22;50593;44.748;19.692;2022-08-30T02:03:49;29.00;56.20
64255;DHT22;50593;44.748;19.692;2022-08-30T02:04:10;29.00;56.10
64255;DHT22;50593;44.748;19.692;2022-08-30T02:04:32;29.00;56.10
64255;DHT22;50593;44.748;19.692;2022-08-30T02:04:53;29.00;55.20
64255;DHT22;50593;44.748;19.692;2022-08-30T02:05:13;29.00;56.10
64255;DHT22;50593;44.748;19.692;2022-08-30T02:05:35;29.00;55.10
64255;DHT22;50593;44.748;19.692;2022-08-30T02:05:56;29.00;56.10
64255;DHT22;50593;44.748;19.692;2022-08-30T02:06:17;29.00;56.00
64255;DHT22;50593;44.748;19.692;2022-08-30T02:06:38;29.00;56.00
64255;DHT22;50593;44.748;19.692;2022-08-30T02:06:59;29.00;55.00
64255;DHT22;50593;44.748;19.692;2022-08-30T02:07:21;29.00;56.00
64255;DHT22;50593;44.748;19.692;2022-08-30T02:07:41;29.00;55.90
64255;DHT22;50593;44.748;19.692;2022-08-30T02:08:02;29.00;56.00
64255;DHT22;50593;44.748;19.692;2022-08-30T02:08:23;29.00;56.00
64255;DHT22;50593;44.748;19.692;2022-08-30T02:08:44;29.00;56.00
64255;DHT22;50593;44.748;19.692;2022-08-30T02:09:04;29.00;55.90
64255;DHT22;50593;44.748;19.692;2022-08-30T02:09:25;29.00;56.20
64255;DHT22;50593;44.748;19.692;2022-08-30T02:09:45;29.00;56.00
64255;DHT22;50593;44.748;19.692;2022-08-30T02:10:07;29.00;55.00
64255;DHT22;50593;44.748;19.692;2022-08-30T02:10:27;29.00;56.00
64255;DHT22;50593;44.748;19.692;2022-08-30T02:10:48;29.00;56.00
64255;DHT22;50593;44.748;19.692;2022-08-30T02:11:09;29.00;55.90
64255;DHT22;50593;44.748;19.692;2022-08-30T02:11:30;29.00;56.00
64255;DHT22;50593;44.748;19.692;2022-08-30T02:11:50;29.00;56.00
64255;DHT22;50593;44.748;19.692;2022-08-30T02:12:11;29.00;55.90
64255;DHT22;50593;44.748;19.692;2022-08-30T02:12:32;29.10;56.10
64255;DHT22;50593;44.748;19.692;2022-08-30T02:12:53;29.10;56.00
64255;DHT22;50593;44.748;19.692;2022-08-30T02:13:14;29.00;55.00
64255;DHT22;50593;44.748;19.692;2022-08-30T02:13:35;29.00;56.00
64255;DHT22;50593;44.748;19.692;2022-08-30T02:13:56;29.00;55.00
64255;DHT22;50593;44.748;19.692;2022-08-30T02:14:17;29.00;56.00
64255;DHT22;50593;44.748;19.692;2022-08-30T02:14:38;29.00;55.00
64255;DHT22;50593;44.748;19.692;2022-08-30T02:14:58;29.10;56.10
64255;DHT22;50593;44.748;19.692;2022-08-30T02:15:19;29.10;56.00